createdAt,value
2023-03-16T00:00:55.718Z,97738.91
2023-03-16T00:03:30.678Z,97739.47
2023-03-16T00:06:01.428Z,97739.84
2023-03-16T00:08:31.834Z,97735.53
2023-03-16T00:11:02.989Z,97747.34
2023-03-16T00:13:33.776Z,97734.84
2023-03-16T00:16:05.683Z,97737.94
2023-03-16T00:18:39.516Z,97746.34
2023-03-16T00:21:10.619Z,97752.16
2023-03-16T00:23:43.138Z,97757.50
2023-03-16T00:26:15.552Z,97755.09
2023-03-16T00:28:45.978Z,97751.53
2023-03-16T00:31:17.937Z,97743.84
2023-03-16T00:33:49.960Z,97747.59
2023-03-16T00:36:20.739Z,97751.88
2023-03-16T00:38:51.564Z,97759.38
2023-03-16T00:41:23.085Z,97759.84
2023-03-16T00:43:54.063Z,97773.31
2023-03-16T00:46:27.254Z,97767.88
2023-03-16T00:48:59.667Z,97772.34
2023-03-16T00:51:30.668Z,97771.88
2023-03-16T00:54:01.725Z,97780.47
2023-03-16T00:56:32.565Z,97778.59
2023-03-16T00:59:02.765Z,97765.81
2023-03-16T01:01:33.807Z,97780.19
2023-03-16T01:04:05.919Z,97783.56
2023-03-16T01:06:38.794Z,97769.44
2023-03-16T01:09:10.075Z,97775.59
2023-03-16T01:11:43.304Z,97769.34
2023-03-16T01:14:15.951Z,97771.66
2023-03-16T01:16:57.860Z,97786.16
2023-03-16T01:19:31.270Z,97771.13
2023-03-16T01:22:02.631Z,97779.25
2023-03-16T01:24:33.119Z,97774.44
2023-03-16T01:27:04.814Z,97778.75
2023-03-16T01:29:35.937Z,97772.44
2023-03-16T01:32:05.932Z,97773.50
2023-03-16T01:34:37.511Z,97766.81
2023-03-16T01:37:07.496Z,97773.13
2023-03-16T01:39:40.356Z,97769.56
2023-03-16T01:42:11.064Z,97776.88
2023-03-16T01:45:01.945Z,97774.19
2023-03-16T01:47:31.531Z,97776.66
2023-03-16T01:50:04.147Z,97779.88
2023-03-16T01:52:36.048Z,97778.66
2023-03-16T01:55:09.756Z,97777.19
2023-03-16T01:57:42.859Z,97778.41
2023-03-16T02:00:19.614Z,97778.72
2023-03-16T02:02:53.445Z,97784.34
2023-03-16T02:05:28.052Z,97783.88
2023-03-16T02:07:59.468Z,97786.53
2023-03-16T02:10:31.626Z,97790.78
2023-03-16T02:13:02.799Z,97790.81
2023-03-16T02:15:36.827Z,97800.13
2023-03-16T02:18:08.292Z,97803.22
2023-03-16T02:20:47.282Z,97803.38
2023-03-16T02:23:21.365Z,97814.88
2023-03-16T02:25:58.189Z,97807.53
2023-03-16T02:28:34.218Z,97805.06
2023-03-16T02:31:07.614Z,97808.41
2023-03-16T02:33:38.927Z,97812.69
2023-03-16T02:36:09.731Z,97815.69
2023-03-16T02:38:42.167Z,97813.78
2023-03-16T02:41:15.273Z,97815.31
2023-03-16T02:43:52.672Z,97815.63
2023-03-16T02:46:27.218Z,97818.97
2023-03-16T02:49:03.593Z,97818.78
2023-03-16T02:51:33.788Z,97814.34
2023-03-16T02:54:04.688Z,97820.22
2023-03-16T02:56:34.708Z,97822.63
2023-03-16T02:59:05.957Z,97825.59
2023-03-16T03:01:38.856Z,97829.97
2023-03-16T03:04:10.167Z,97829.13
2023-03-16T03:06:41.972Z,97828.31
2023-03-16T03:09:13.630Z,97822.84
2023-03-16T03:11:43.947Z,97831.28
2023-03-16T03:14:17.374Z,97834.00
2023-03-16T03:16:49.312Z,97846.31
2023-03-16T03:19:19.197Z,97842.28
2023-03-16T03:21:50.531Z,97851.94
2023-03-16T03:24:20.871Z,97849.34
2023-03-16T03:26:50.998Z,97850.53
2023-03-16T03:29:21.900Z,97853.59
2023-03-16T03:31:53.704Z,97849.28
2023-03-16T03:34:24.388Z,97852.53
2023-03-16T03:36:55.212Z,97854.72
2023-03-16T03:39:26.116Z,97862.84
2023-03-16T03:41:56.376Z,97864.56
2023-03-16T03:44:27.582Z,97861.09
2023-03-16T03:46:59.284Z,97875.00
2023-03-16T03:49:29.490Z,97869.94
2023-03-16T03:52:05.051Z,97865.91
2023-03-16T03:54:35.271Z,97871.78
2023-03-16T03:57:05.014Z,97875.22
2023-03-16T03:59:35.302Z,97870.59
2023-03-16T04:02:07.490Z,97879.09
2023-03-16T04:04:38.300Z,97889.84
2023-03-16T04:07:09.024Z,97886.28
2023-03-16T04:09:39.561Z,97886.03
2023-03-16T04:12:11.071Z,97894.16
2023-03-16T04:14:41.517Z,97890.59
2023-03-16T04:17:14.220Z,97902.75
2023-03-16T04:19:45.416Z,97902.50
2023-03-16T04:22:15.417Z,97901.50
2023-03-16T04:24:45.761Z,97901.59
2023-03-16T04:27:15.649Z,97907.19
2023-03-16T04:29:46.232Z,97907.63
2023-03-16T04:32:17.933Z,97913.31
2023-03-16T04:34:48.717Z,97915.47
2023-03-16T04:37:19.230Z,97911.88
2023-03-16T04:39:50.263Z,97915.47
2023-03-16T04:42:20.125Z,97920.59
2023-03-16T04:44:51.701Z,97923.44
2023-03-16T04:47:24.903Z,97929.97
2023-03-16T04:49:56.189Z,97929.06
2023-03-16T04:52:27.770Z,97933.94
2023-03-16T04:54:58.042Z,97939.53
2023-03-16T04:57:28.198Z,97937.75
2023-03-16T04:59:58.758Z,97937.75
2023-03-16T05:02:30.735Z,97950.09
2023-03-16T05:05:01.989Z,97954.84
2023-03-16T05:07:33.180Z,97947.69
2023-03-16T05:10:03.687Z,97953.44
2023-03-16T05:12:33.627Z,97956.06
2023-03-16T05:15:03.977Z,97954.28
2023-03-16T05:17:35.909Z,97963.78
2023-03-16T05:20:09.920Z,97962.56
2023-03-16T05:22:42.163Z,97959.94
2023-03-16T05:25:15.164Z,97965.38
2023-03-16T05:27:46.901Z,97964.75
2023-03-16T05:30:19.213Z,97968.78
2023-03-16T05:32:51.785Z,97974.09
2023-03-16T05:35:24.123Z,97973.94
2023-03-16T05:37:54.543Z,97967.53
2023-03-16T05:40:27.034Z,97969.00
2023-03-16T05:43:00.912Z,97970.47
2023-03-16T05:45:31.724Z,97978.84
2023-03-16T05:48:06.046Z,97973.00
2023-03-16T05:50:36.137Z,97981.13
2023-03-16T05:53:05.997Z,97968.66
2023-03-16T05:55:36.853Z,97977.44
2023-03-16T05:58:07.537Z,97972.03
2023-03-16T06:00:39.795Z,97966.75
2023-03-16T06:03:12.031Z,97970.44
2023-03-16T06:05:42.344Z,97984.94
2023-03-16T06:08:12.736Z,97976.38
2023-03-16T06:10:43.280Z,97990.47
2023-03-16T06:13:13.719Z,97983.34
2023-03-16T06:15:44.547Z,97988.97
2023-03-16T06:18:16.714Z,98001.00
2023-03-16T06:20:47.665Z,98001.06
2023-03-16T06:23:19.900Z,98012.00
2023-03-16T06:25:50.086Z,98022.50
2023-03-16T06:28:20.166Z,98026.16
2023-03-16T06:30:50.251Z,98024.06
2023-03-16T06:33:22.460Z,98025.22
2023-03-16T06:35:53.281Z,98024.31
2023-03-16T06:38:23.659Z,98027.25
2023-03-16T06:40:57.072Z,98027.59
2023-03-16T06:43:28.216Z,98028.81
2023-03-16T06:45:59.335Z,98032.78
2023-03-16T06:48:32.005Z,98034.69
2023-03-16T06:51:02.873Z,98032.31
2023-03-16T06:53:34.597Z,98035.03
2023-03-16T06:56:07.272Z,98043.63
2023-03-16T06:58:38.035Z,98036.03
2023-03-16T07:01:09.075Z,98034.38
2023-03-16T07:03:42.428Z,98035.41
2023-03-16T07:06:13.989Z,98041.06
2023-03-16T07:08:47.826Z,98044.47
2023-03-16T07:11:18.304Z,98049.19
2023-03-16T07:13:48.915Z,98046.03
2023-03-16T07:16:20.032Z,98037.66
2023-03-16T07:18:52.557Z,98054.34
2023-03-16T07:21:23.029Z,98051.44
2023-03-16T07:23:59.893Z,98045.13
2023-03-16T07:26:31.302Z,98038.00
2023-03-16T07:29:02.712Z,98036.97
2023-03-16T07:31:35.105Z,98039.03
2023-03-16T07:34:06.977Z,98038.56
2023-03-16T07:36:38.556Z,98044.25
2023-03-16T07:39:10.259Z,98043.72
2023-03-16T07:41:41.145Z,98044.50
2023-03-16T07:44:12.381Z,98038.09
2023-03-16T07:46:43.540Z,98045.66
2023-03-16T07:49:16.881Z,98044.81
2023-03-16T07:51:48.317Z,98043.59
2023-03-16T07:54:19.222Z,98049.75
2023-03-16T07:56:51.050Z,98046.69
2023-03-16T07:59:22.477Z,98049.53
2023-03-16T08:01:54.815Z,98050.13
2023-03-16T08:04:27.897Z,98053.72
2023-03-16T08:07:00.602Z,98057.16
2023-03-16T08:09:31.729Z,98058.50
2023-03-16T08:12:02.615Z,98051.25
2023-03-16T08:14:35.180Z,98051.56
2023-03-16T08:17:06.274Z,98052.84
2023-03-16T08:19:38.320Z,98052.81
2023-03-16T08:22:09.450Z,98047.31
2023-03-16T08:24:40.677Z,98055.44
2023-03-16T08:27:11.466Z,98049.16
2023-03-16T08:29:41.550Z,98049.81
2023-03-16T08:32:12.617Z,98063.72
2023-03-16T08:34:46.332Z,98056.19
2023-03-16T08:37:17.970Z,98061.38
2023-03-16T08:39:51.947Z,98062.41
2023-03-16T08:42:24.259Z,98057.59
2023-03-16T08:44:56.001Z,98068.75
2023-03-16T08:47:27.576Z,98061.75
2023-03-16T08:50:01.896Z,98060.84
2023-03-16T08:52:32.822Z,98056.38
2023-03-16T08:55:05.216Z,98058.88
2023-03-16T08:57:35.920Z,98059.81
2023-03-16T09:00:13.178Z,98067.25
2023-03-16T09:02:44.798Z,98064.78
2023-03-16T09:05:19.095Z,98057.66
2023-03-16T09:07:50.482Z,98059.09
2023-03-16T09:10:20.298Z,98064.06
2023-03-16T09:12:51.087Z,98066.28
2023-03-16T09:15:22.515Z,98068.84
2023-03-16T09:17:55.091Z,98068.53
2023-03-16T09:20:34.592Z,98065.47
2023-03-16T09:23:06.159Z,98067.88
2023-03-16T09:25:36.600Z,98074.28
2023-03-16T09:28:09.166Z,98072.28
2023-03-16T09:30:40.108Z,98071.75
2023-03-16T09:33:11.795Z,98067.16
2023-03-16T09:35:45.715Z,98070.94
2023-03-16T09:38:15.968Z,98073.41
2023-03-16T09:40:47.283Z,98074.00
2023-03-16T09:43:38.304Z,98076.34
2023-03-16T09:46:12.828Z,98072.97
2023-03-16T09:48:44.206Z,98079.09
2023-03-16T09:51:21.957Z,98077.47
2023-03-16T09:53:54.643Z,98078.63
2023-03-16T09:56:30.331Z,98079.84
2023-03-16T09:59:01.956Z,98075.19
2023-03-16T10:01:43.171Z,98077.28
2023-03-16T10:04:23.416Z,98078.84
2023-03-16T10:07:03.007Z,98080.88
2023-03-16T10:09:37.114Z,98080.66
2023-03-16T10:12:10.227Z,98080.28
2023-03-16T10:14:45.920Z,98081.00
2023-03-16T10:17:20.231Z,98077.59
2023-03-16T10:19:54.211Z,98074.97
2023-03-16T10:22:30.387Z,98073.91
2023-03-16T10:25:13.260Z,98075.34
2023-03-16T10:27:45.757Z,98077.72
2023-03-16T10:30:28.917Z,98064.75
2023-03-16T10:33:03.819Z,98067.13
2023-03-16T10:35:43.304Z,98056.59
2023-03-16T10:38:29.972Z,98064.63
2023-03-16T10:41:00.935Z,98067.69
2023-03-16T10:43:33.201Z,98072.38
2023-03-16T10:46:05.081Z,98070.22
2023-03-16T10:48:36.718Z,98075.63
2023-03-16T10:51:10.502Z,98064.16
2023-03-16T10:53:44.824Z,98066.13
2023-03-16T10:56:21.366Z,98061.81
2023-03-16T10:58:52.203Z,98064.94
2023-03-16T11:01:27.225Z,98064.56
2023-03-16T11:04:02.699Z,98062.19
2023-03-16T11:06:35.790Z,98066.06
2023-03-16T11:09:09.908Z,98058.72
2023-03-16T11:11:40.347Z,98059.50
2023-03-16T11:14:15.772Z,98061.03
2023-03-16T11:16:51.336Z,98061.44
2023-03-16T11:19:23.617Z,98052.06
2023-03-16T11:21:59.474Z,98052.06
2023-03-16T11:24:36.195Z,98039.28
2023-03-16T11:27:09.711Z,98041.41
2023-03-16T11:29:49.204Z,98024.03
2023-03-16T11:32:24.413Z,98041.75
2023-03-16T11:34:54.547Z,98046.31
2023-03-16T11:37:38.447Z,98041.22
2023-03-16T11:40:18.059Z,98043.09
2023-03-16T11:42:56.704Z,98045.56
2023-03-16T11:45:33.243Z,98035.66
2023-03-16T11:48:13.046Z,98038.50
2023-03-16T11:50:53.079Z,98041.84
2023-03-16T11:53:35.653Z,98033.78
2023-03-16T11:56:16.542Z,98033.94
2023-03-16T11:58:58.213Z,98017.84
2023-03-16T12:01:43.253Z,98010.78
2023-03-16T12:04:31.218Z,98016.84
2023-03-16T12:07:14.292Z,98010.19
2023-03-16T12:10:11.256Z,98018.16
2023-03-16T12:12:50.598Z,97996.22
2023-03-16T12:15:25.929Z,97996.59
2023-03-16T12:17:58.651Z,97993.63
2023-03-16T12:20:32.229Z,97986.25
2023-03-16T12:23:08.540Z,97984.31
2023-03-16T12:25:43.274Z,97982.97
2023-03-16T12:28:22.743Z,97983.91
2023-03-16T12:31:00.600Z,97976.50
2023-03-16T12:33:42.299Z,97985.56
2023-03-16T12:36:40.471Z,97979.59
2023-03-16T12:39:15.123Z,97977.09
2023-03-16T12:41:57.634Z,97979.13
2023-03-16T12:44:34.876Z,97975.38
2023-03-16T12:47:13.306Z,97983.03
2023-03-16T12:49:45.940Z,97976.75
2023-03-16T12:52:17.119Z,97969.38
2023-03-16T12:54:55.850Z,97972.00
2023-03-16T12:57:28.591Z,97961.72
2023-03-16T13:00:01.790Z,97961.44
2023-03-16T13:02:35.319Z,97950.69
2023-03-16T13:05:11.169Z,97951.75
2023-03-16T13:07:50.175Z,97954.22
2023-03-16T13:10:22.645Z,97953.50
2023-03-16T13:12:54.146Z,97951.59
2023-03-16T13:15:33.607Z,97949.00
2023-03-16T13:18:23.093Z,97945.41
2023-03-16T13:20:59.135Z,97943.38
2023-03-16T13:23:31.523Z,97942.31
2023-03-16T13:26:09.679Z,97947.38
2023-03-16T13:28:40.873Z,97940.38
2023-03-16T13:31:26.467Z,97948.09
2023-03-16T13:34:00.549Z,97941.84
2023-03-16T13:36:32.063Z,97933.06
2023-03-16T13:39:07.695Z,97941.94
2023-03-16T13:41:38.146Z,97944.38
2023-03-16T13:44:13.869Z,97935.53
2023-03-16T13:46:45.612Z,97941.19
2023-03-16T13:49:15.578Z,97939.50
2023-03-16T13:51:46.035Z,97937.28
2023-03-16T13:54:26.271Z,97934.97
2023-03-16T13:56:59.726Z,97941.72
2023-03-16T13:59:30.942Z,97932.72
2023-03-16T14:02:03.758Z,97932.03
2023-03-16T14:04:37.177Z,97927.53
2023-03-16T14:07:08.810Z,97925.69
2023-03-16T14:09:39.902Z,97930.63
2023-03-16T14:12:15.411Z,97937.38
2023-03-16T14:14:50.918Z,97940.59
2023-03-16T14:17:23.824Z,97934.75
2023-03-16T14:19:58.270Z,97936.09
2023-03-16T14:22:40.994Z,97928.81
2023-03-16T14:25:22.897Z,97931.81
2023-03-16T14:28:01.436Z,97930.69
2023-03-16T14:30:32.470Z,97927.38
2023-03-16T14:33:05.919Z,97933.31
2023-03-16T14:35:44.313Z,97926.81
2023-03-16T14:38:24.165Z,97931.13
2023-03-16T14:40:56.751Z,97931.63
2023-03-16T14:43:33.155Z,97932.06
2023-03-16T14:46:05.714Z,97930.34
2023-03-16T14:48:39.425Z,97936.97
2023-03-16T14:51:13.611Z,97939.44
2023-03-16T14:53:44.251Z,97938.34
2023-03-16T14:56:18.036Z,97937.00
2023-03-16T14:58:48.411Z,97938.75
2023-03-16T15:01:20.991Z,97933.84
2023-03-16T15:03:53.302Z,97939.34
2023-03-16T15:06:23.982Z,97930.97
2023-03-16T15:08:55.111Z,97932.41
2023-03-16T15:11:26.857Z,97928.50
2023-03-16T15:14:04.688Z,97946.53
2023-03-16T15:16:34.944Z,97942.47
2023-03-16T15:19:06.377Z,97938.97
2023-03-16T15:21:37.032Z,97938.50
2023-03-16T15:24:06.730Z,97938.19
2023-03-16T15:26:37.621Z,97939.69
2023-03-16T15:29:11.912Z,97942.84
2023-03-16T15:31:42.005Z,97940.53
2023-03-16T15:34:13.764Z,97936.41
2023-03-16T15:36:44.022Z,97937.31
2023-03-16T15:39:23.028Z,97940.78
2023-03-16T15:41:52.859Z,97943.78
2023-03-16T15:44:23.188Z,97943.72
2023-03-16T15:46:55.601Z,97945.31
2023-03-16T15:49:30.196Z,97949.13
2023-03-16T15:52:03.055Z,97960.25
2023-03-16T15:54:35.760Z,97949.22
2023-03-16T15:57:06.601Z,97954.72
2023-03-16T15:59:38.549Z,97964.94
2023-03-16T16:02:24.853Z,97965.78
2023-03-16T16:04:57.560Z,97950.09
2023-03-16T16:07:28.863Z,97956.59
2023-03-16T16:09:59.043Z,97955.59
2023-03-16T16:12:30.380Z,97955.50
2023-03-16T16:15:00.558Z,97957.16
2023-03-16T16:17:47.966Z,97973.94
2023-03-16T16:20:27.109Z,97970.50
2023-03-16T16:23:00.737Z,97977.13
2023-03-16T16:25:35.730Z,97975.97
2023-03-16T16:28:13.375Z,97974.44
2023-03-16T16:30:43.787Z,97972.06
2023-03-16T16:33:26.541Z,97982.16
2023-03-16T16:36:01.142Z,97981.38
2023-03-16T16:38:31.958Z,97988.00
2023-03-16T16:41:03.992Z,97979.09
2023-03-16T16:43:39.113Z,97991.34
2023-03-16T16:46:15.798Z,97988.75
2023-03-16T16:48:47.926Z,97992.22
2023-03-16T16:51:21.985Z,97989.16
2023-03-16T16:53:53.401Z,97989.94
2023-03-16T16:56:28.066Z,97999.25
2023-03-16T16:58:59.671Z,97996.91
2023-03-16T17:01:33.401Z,97992.28
2023-03-16T17:04:06.203Z,97999.25
2023-03-16T17:06:39.925Z,98002.31
2023-03-16T17:09:11.046Z,98005.41
2023-03-16T17:11:42.188Z,98015.09
2023-03-16T17:14:19.212Z,98015.06
2023-03-16T17:16:50.933Z,98020.47
2023-03-16T17:19:23.426Z,98025.50
2023-03-16T17:21:57.516Z,98034.41
2023-03-16T17:24:28.912Z,98035.91
2023-03-16T17:27:00.469Z,98038.25
2023-03-16T17:29:33.706Z,98040.13
2023-03-16T17:32:04.757Z,98046.28
2023-03-16T17:34:37.282Z,98055.88
2023-03-16T17:37:15.424Z,98053.44
2023-03-16T17:39:46.384Z,98053.84
2023-03-16T17:42:18.739Z,98070.56
2023-03-16T17:44:50.904Z,98069.69
2023-03-16T17:47:23.122Z,98065.25
2023-03-16T17:49:53.237Z,98059.81
2023-03-16T17:52:26.051Z,98068.63
2023-03-16T17:54:56.927Z,98074.28
2023-03-16T17:57:29.862Z,98076.63
2023-03-16T18:00:01.471Z,98075.09
2023-03-16T18:02:50.048Z,98092.00
2023-03-16T18:05:23.296Z,98098.38
2023-03-16T18:07:57.115Z,98100.41
2023-03-16T18:10:33.438Z,98101.94
2023-03-16T18:13:05.594Z,98099.38
2023-03-16T18:15:40.124Z,98114.66
2023-03-16T18:18:13.535Z,98113.09
2023-03-16T18:20:45.244Z,98113.16
2023-03-16T18:23:32.611Z,98102.00
2023-03-16T18:26:04.184Z,98100.50
2023-03-16T18:28:35.583Z,98099.69
2023-03-16T18:31:07.964Z,98094.72
2023-03-16T18:33:39.675Z,98098.97
2023-03-16T18:36:18.864Z,98114.44
2023-03-16T18:38:52.386Z,98108.41
2023-03-16T18:41:25.695Z,98111.56
2023-03-16T18:43:59.199Z,98121.59
2023-03-16T18:46:33.736Z,98121.91
2023-03-16T18:49:05.591Z,98127.84
2023-03-16T18:51:37.453Z,98136.97
2023-03-16T18:54:21.862Z,98139.25
2023-03-16T18:56:53.213Z,98141.47
2023-03-16T18:59:23.328Z,98139.31
2023-03-16T19:01:58.371Z,98145.28
2023-03-16T19:04:31.301Z,98145.06
2023-03-16T19:07:02.446Z,98152.31
2023-03-16T19:09:36.394Z,98147.22
2023-03-16T19:12:10.683Z,98155.13
2023-03-16T19:14:41.141Z,98162.03
2023-03-16T19:17:12.237Z,98164.78
2023-03-16T19:19:43.461Z,98160.94
2023-03-16T19:22:19.254Z,98166.72
2023-03-16T19:24:53.125Z,98175.75
2023-03-16T19:27:27.146Z,98171.19
2023-03-16T19:29:58.100Z,98169.25
2023-03-16T19:32:29.048Z,98180.38
2023-03-16T19:35:00.703Z,98182.56
2023-03-16T19:37:31.369Z,98189.56
2023-03-16T19:40:03.915Z,98190.22
2023-03-16T19:42:36.418Z,98193.00
2023-03-16T19:45:08.589Z,98196.69
2023-03-16T19:47:40.086Z,98196.09
2023-03-16T19:50:17.272Z,98195.19
2023-03-16T19:52:47.810Z,98201.97
2023-03-16T19:55:22.850Z,98207.44
2023-03-16T19:58:01.693Z,98203.50
2023-03-16T20:00:32.313Z,98217.97
2023-03-16T20:03:02.922Z,98208.78
2023-03-16T20:05:34.320Z,98208.22
2023-03-16T20:08:08.873Z,98213.25
2023-03-16T20:10:42.499Z,98213.94
2023-03-16T20:13:14.632Z,98214.25
2023-03-16T20:15:46.036Z,98214.78
2023-03-16T20:18:19.191Z,98212.38
2023-03-16T20:20:51.285Z,98213.72
2023-03-16T20:23:24.854Z,98222.81
2023-03-16T20:26:02.812Z,98219.94
2023-03-16T20:28:37.916Z,98219.00
2023-03-16T20:31:12.044Z,98219.53
2023-03-16T20:33:44.957Z,98221.94
2023-03-16T20:36:16.073Z,98221.13
2023-03-16T20:38:47.751Z,98227.28
2023-03-16T20:41:28.494Z,98226.34
2023-03-16T20:44:01.494Z,98222.13
2023-03-16T20:46:34.823Z,98225.09
2023-03-16T20:49:08.269Z,98220.72
2023-03-16T20:51:42.390Z,98226.13
2023-03-16T20:54:24.423Z,98227.94
2023-03-16T20:56:58.510Z,98219.53
2023-03-16T20:59:30.969Z,98225.72
2023-03-16T21:02:02.043Z,98229.66
2023-03-16T21:04:33.699Z,98228.41
2023-03-16T21:07:05.274Z,98227.84
2023-03-16T21:09:35.856Z,98229.19
2023-03-16T21:12:10.939Z,98224.75
2023-03-16T21:14:42.442Z,98223.19
2023-03-16T21:17:23.585Z,98227.97
2023-03-16T21:19:59.301Z,98221.25
2023-03-16T21:22:31.897Z,98227.56
2023-03-16T21:25:02.310Z,98221.09
2023-03-16T21:27:38.044Z,98220.84
2023-03-16T21:30:14.425Z,98217.63
2023-03-16T21:32:44.941Z,98226.16
2023-03-16T21:35:16.891Z,98224.44
2023-03-16T21:37:47.650Z,98220.00
2023-03-16T21:40:23.660Z,98225.16
2023-03-16T21:42:56.692Z,98228.16
2023-03-16T21:45:27.266Z,98231.06
2023-03-16T21:47:58.839Z,98227.56
2023-03-16T21:50:34.308Z,98224.06
2023-03-16T21:53:04.740Z,98223.63
2023-03-16T21:55:36.143Z,98221.00
2023-03-16T21:58:08.403Z,98218.53
2023-03-16T22:00:39.013Z,98228.84
2023-03-16T22:03:22.147Z,98219.38
2023-03-16T22:05:53.532Z,98220.16
2023-03-16T22:08:26.195Z,98222.03
2023-03-16T22:10:57.502Z,98221.97
2023-03-16T22:13:28.980Z,98228.00
2023-03-16T22:16:00.431Z,98228.94
2023-03-16T22:18:35.165Z,98225.91
2023-03-16T22:21:27.962Z,98221.72
2023-03-16T22:23:59.580Z,98222.34
2023-03-16T22:26:31.791Z,98221.75
2023-03-16T22:29:18.950Z,98229.56
2023-03-16T22:31:51.734Z,98227.38
2023-03-16T22:34:32.470Z,98222.75
2023-03-16T22:37:03.903Z,98228.44
2023-03-16T22:39:39.753Z,98230.44
2023-03-16T22:42:31.034Z,98216.97
2023-03-16T22:45:05.834Z,98219.13
2023-03-16T22:47:39.505Z,98212.25
2023-03-16T22:50:12.078Z,98220.47
2023-03-16T22:52:43.984Z,98211.59
2023-03-16T22:55:18.958Z,98212.44
2023-03-16T22:57:50.539Z,98211.59
2023-03-16T23:00:23.536Z,98209.81
2023-03-16T23:02:53.972Z,98224.47
2023-03-16T23:05:25.840Z,98216.31
2023-03-16T23:07:56.485Z,98207.19
2023-03-16T23:10:28.564Z,98212.59
2023-03-16T23:12:59.843Z,98214.00
2023-03-16T23:15:32.677Z,98210.09
2023-03-16T23:18:02.865Z,98211.41
2023-03-16T23:20:34.045Z,98203.19
2023-03-16T23:23:04.352Z,98201.19
2023-03-16T23:25:34.809Z,98199.66
2023-03-16T23:28:06.457Z,98193.66
2023-03-16T23:30:38.916Z,98194.25
2023-03-16T23:33:09.143Z,98195.34
2023-03-16T23:35:39.017Z,98190.91
2023-03-16T23:38:10.592Z,98188.31
2023-03-16T23:40:41.937Z,98196.78
2023-03-16T23:43:12.397Z,98195.22
2023-03-16T23:45:46.982Z,98205.44
2023-03-16T23:48:19.786Z,98199.13
2023-03-16T23:50:52.542Z,98206.91
2023-03-16T23:53:23.005Z,98197.63
2023-03-16T23:55:53.167Z,98210.59
2023-03-16T23:58:23.967Z,98205.25
